sensor_id;sensor_type;location;lat;lon;timestamp;temperature;humidity
324;DHT22;149;51.094;17.002;2022-10-04T00:00:39;11.50;99.90
324;DHT22;149;51.094;17.002;2022-10-04T00:03:21;11.50;99.90
324;DHT22;149;51.094;17.002;2022-10-04T00:05:52;11.50;99.90
324;DHT22;149;51.094;17.002;2022-10-04T00:08:28;11.60;99.90
324;DHT22;149;51.094;17.002;2022-10-04T00:11:06;11.60;99.90
324;DHT22;149;51.094;17.002;2022-10-04T00:13:37;11.60;99.90
324;DHT22;149;51.094;17.002;2022-10-04T00:16:04;11.60;99.90
324;DHT22;149;51.094;17.002;2022-10-04T00:18:40;11.60;99.90
324;DHT22;149;51.094;17.002;2022-10-04T00:21:11;11.60;99.90
324;DHT22;149;51.094;17.002;2022-10-04T00:23:40;11.60;99.90
324;DHT22;149;51.094;17.002;2022-10-04T00:28:51;11.60;99.90
324;DHT22;149;51.094;17.002;2022-10-04T00:31:22;11.70;99.90
324;DHT22;149;51.094;17.002;2022-10-04T00:36:35;11.70;99.90
324;DHT22;149;51.094;17.002;2022-10-04T00:39:14;11.70;99.90
324;DHT22;149;51.094;17.002;2022-10-04T00:44:27;11.60;99.90
324;DHT22;149;51.094;17.002;2022-10-04T00:46:56;11.60;99.90
324;DHT22;149;51.094;17.002;2022-10-04T00:49:33;11.70;99.90
324;DHT22;149;51.094;17.002;2022-10-04T00:52:18;11.50;99.90
324;DHT22;149;51.094;17.002;2022-10-04T00:54:50;11.50;99.90
324;DHT22;149;51.094;17.002;2022-10-04T00:57:23;11.50;99.90
324;DHT22;149;51.094;17.002;2022-10-04T01:00:03;11.50;99.90
324;DHT22;149;51.094;17.002;2022-10-04T01:05:18;11.30;99.90
324;DHT22;149;51.094;17.002;2022-10-04T01:07:50;11.10;99.90
324;DHT22;149;51.094;17.002;2022-10-04T01:10:35;11.00;99.90
324;DHT22;149;51.094;17.002;2022-10-04T01:13:12;10.90;99.90
324;DHT22;149;51.094;17.002;2022-10-04T01:21:07;10.80;99.90
324;DHT22;149;51.094;17.002;2022-10-04T01:24:14;10.80;99.90
324;DHT22;149;51.094;17.002;2022-10-04T01:29:05;10.80;99.90
324;DHT22;149;51.094;17.002;2022-10-04T01:31:36;10.80;99.90
324;DHT22;149;51.094;17.002;2022-10-04T01:34:07;10.90;99.90
324;DHT22;149;51.094;17.002;2022-10-04T01:36:34;11.00;99.90
324;DHT22;149;51.094;17.002;2022-10-04T01:39:05;11.10;99.90
324;DHT22;149;51.094;17.002;2022-10-04T01:46:59;11.10;99.90
324;DHT22;149;51.094;17.002;2022-10-04T01:49:30;11.20;99.90
324;DHT22;149;51.094;17.002;2022-10-04T01:52:04;11.30;99.90
324;DHT22;149;51.094;17.002;2022-10-04T01:54:36;11.30;99.90
324;DHT22;149;51.094;17.002;2022-10-04T01:57:23;11.30;99.90
324;DHT22;149;51.094;17.002;2022-10-04T02:00:00;11.30;99.90
324;DHT22;149;51.094;17.002;2022-10-04T02:02:44;11.30;99.90
324;DHT22;149;51.094;17.002;2022-10-04T02:05:18;11.30;99.90
324;DHT22;149;51.094;17.002;2022-10-04T02:07:47;11.20;99.90
324;DHT22;149;51.094;17.002;2022-10-04T02:10:19;11.10;99.90
324;DHT22;149;51.094;17.002;2022-10-04T02:12:48;11.10;99.90
324;DHT22;149;51.094;17.002;2022-10-04T02:15:18;11.10;99.90
324;DHT22;149;51.094;17.002;2022-10-04T02:17:48;11.10;99.90
324;DHT22;149;51.094;17.002;2022-10-04T02:20:18;11.20;99.90
324;DHT22;149;51.094;17.002;2022-10-04T02:22:50;11.20;99.90
324;DHT22;149;51.094;17.002;2022-10-04T02:25:19;11.20;99.90
324;DHT22;149;51.094;17.002;2022-10-04T02:27:51;11.20;99.90
324;DHT22;149;51.094;17.002;2022-10-04T02:30:22;11.10;99.90
324;DHT22;149;51.094;17.002;2022-10-04T02:32:53;10.90;99.90
324;DHT22;149;51.094;17.002;2022-10-04T02:35:31;11.00;99.90
324;DHT22;149;51.094;17.002;2022-10-04T02:38:16;10.80;99.90
324;DHT22;149;51.094;17.002;2022-10-04T02:40:53;10.80;99.90
324;DHT22;149;51.094;17.002;2022-10-04T02:46:12;10.70;99.90
324;DHT22;149;51.094;17.002;2022-10-04T02:48:46;10.70;99.90
324;DHT22;149;51.094;17.002;2022-10-04T02:51:23;10.80;99.90
324;DHT22;149;51.094;17.002;2022-10-04T02:54:04;10.70;99.90
324;DHT22;149;51.094;17.002;2022-10-04T02:56:35;10.70;99.90
324;DHT22;149;51.094;17.002;2022-10-04T02:59:04;10.60;99.90
324;DHT22;149;51.094;17.002;2022-10-04T03:01:51;10.60;99.90
324;DHT22;149;51.094;17.002;2022-10-04T03:04:26;10.60;99.90
324;DHT22;149;51.094;17.002;2022-10-04T03:06:55;10.60;99.90
324;DHT22;149;51.094;17.002;2022-10-04T03:09:23;10.60;99.90
324;DHT22;149;51.094;17.002;2022-10-04T03:11:55;10.70;99.90
324;DHT22;149;51.094;17.002;2022-10-04T03:14:24;10.70;99.90
324;DHT22;149;51.094;17.002;2022-10-04T03:16:55;10.60;99.90
324;DHT22;149;51.094;17.002;2022-10-04T03:19:25;10.60;99.90
324;DHT22;149;51.094;17.002;2022-10-04T03:21:57;10.70;99.90
324;DHT22;149;51.094;17.002;2022-10-04T03:24:32;10.70;99.90
324;DHT22;149;51.094;17.002;2022-10-04T03:27:05;10.70;99.90
324;DHT22;149;51.094;17.002;2022-10-04T03:29:32;10.70;99.90
324;DHT22;149;51.094;17.002;2022-10-04T03:32:19;10.60;99.90
324;DHT22;149;51.094;17.002;2022-10-04T03:34:57;10.50;99.90
324;DHT22;149;51.094;17.002;2022-10-04T03:37:28;10.60;99.90
324;DHT22;149;51.094;17.002;2022-10-04T03:39:56;10.50;99.90
324;DHT22;149;51.094;17.002;2022-10-04T03:42:28;10.40;99.90
324;DHT22;149;51.094;17.002;2022-10-04T03:45:06;10.40;99.90
324;DHT22;149;51.094;17.002;2022-10-04T03:47:36;10.30;99.90
324;DHT22;149;51.094;17.002;2022-10-04T03:50:44;10.30;99.90
324;DHT22;149;51.094;17.002;2022-10-04T03:53:13;10.30;99.90
324;DHT22;149;51.094;17.002;2022-10-04T03:55:43;10.30;99.90
324;DHT22;149;51.094;17.002;2022-10-04T03:58:15;10.30;99.90
324;DHT22;149;51.094;17.002;2022-10-04T04:03:49;10.30;99.90
324;DHT22;149;51.094;17.002;2022-10-04T04:06:23;10.40;99.90
324;DHT22;149;51.094;17.002;2022-10-04T04:08:53;10.40;99.90
324;DHT22;149;51.094;17.002;2022-10-04T04:11:24;10.40;99.90
324;DHT22;149;51.094;17.002;2022-10-04T04:14:18;10.30;99.90
324;DHT22;149;51.094;17.002;2022-10-04T04:16:46;10.30;99.90
324;DHT22;149;51.094;17.002;2022-10-04T04:19:16;10.20;99.90
324;DHT22;149;51.094;17.002;2022-10-04T04:21:44;10.20;99.90
324;DHT22;149;51.094;17.002;2022-10-04T04:24:20;10.30;99.90
324;DHT22;149;51.094;17.002;2022-10-04T04:26:55;10.30;99.90
324;DHT22;149;51.094;17.002;2022-10-04T04:29:50;10.30;99.90
324;DHT22;149;51.094;17.002;2022-10-04T04:32:28;10.40;99.90
324;DHT22;149;51.094;17.002;2022-10-04T04:35:02;10.40;99.90
324;DHT22;149;51.094;17.002;2022-10-04T04:37:36;10.30;99.90
324;DHT22;149;51.094;17.002;2022-10-04T04:40:22;10.30;99.90
324;DHT22;149;51.094;17.002;2022-10-04T04:42:50;10.20;99.90
324;DHT22;149;51.094;17.002;2022-10-04T04:45:20;10.30;99.90
324;DHT22;149;51.094;17.002;2022-10-04T04:47:51;10.20;99.90
324;DHT22;149;51.094;17.002;2022-10-04T04:50:32;10.20;99.90
324;DHT22;149;51.094;17.002;2022-10-04T04:53:13;10.20;99.90
324;DHT22;149;51.094;17.002;2022-10-04T04:55:44;10.10;99.90
324;DHT22;149;51.094;17.002;2022-10-04T04:58:35;10.20;99.90
324;DHT22;149;51.094;17.002;2022-10-04T05:01:22;10.20;99.90
324;DHT22;149;51.094;17.002;2022-10-04T05:04:21;10.20;99.90
324;DHT22;149;51.094;17.002;2022-10-04T05:07:11;10.10;99.90
324;DHT22;149;51.094;17.002;2022-10-04T05:09:41;10.10;99.90
324;DHT22;149;51.094;17.002;2022-10-04T05:12:20;10.00;99.90
324;DHT22;149;51.094;17.002;2022-10-04T05:14:50;10.00;99.90
324;DHT22;149;51.094;17.002;2022-10-04T05:17:28;10.00;99.90
324;DHT22;149;51.094;17.002;2022-10-04T05:20:01;10.00;99.90
324;DHT22;149;51.094;17.002;2022-10-04T05:22:30;10.00;99.90
324;DHT22;149;51.094;17.002;2022-10-04T05:25:02;10.00;99.90
324;DHT22;149;51.094;17.002;2022-10-04T05:27:39;10.10;99.90
324;DHT22;149;51.094;17.002;2022-10-04T05:38:25;10.10;99.90
324;DHT22;149;51.094;17.002;2022-10-04T05:41:12;10.10;99.90
324;DHT22;149;51.094;17.002;2022-10-04T05:43:47;10.10;99.90
324;DHT22;149;51.094;17.002;2022-10-04T05:46:27;10.10;99.90
324;DHT22;149;51.094;17.002;2022-10-04T05:49:11;10.20;99.90
324;DHT22;149;51.094;17.002;2022-10-04T05:52:00;10.20;99.90
324;DHT22;149;51.094;17.002;2022-10-04T05:54:31;10.30;99.90
324;DHT22;149;51.094;17.002;2022-10-04T05:57:31;10.30;99.90
324;DHT22;149;51.094;17.002;2022-10-04T06:00:15;10.40;99.90
324;DHT22;149;51.094;17.002;2022-10-04T06:08:29;11.00;99.90
324;DHT22;149;51.094;17.002;2022-10-04T06:11:09;11.40;99.90
324;DHT22;149;51.094;17.002;2022-10-04T06:22:21;12.70;99.90
324;DHT22;149;51.094;17.002;2022-10-04T06:24:50;12.80;99.90
324;DHT22;149;51.094;17.002;2022-10-04T06:29:55;12.90;99.90
324;DHT22;149;51.094;17.002;2022-10-04T06:44:29;12.90;99.90
324;DHT22;149;51.094;17.002;2022-10-04T06:55:43;13.40;99.90
324;DHT22;149;51.094;17.002;2022-10-04T07:01:01;13.30;99.90
324;DHT22;149;51.094;17.002;2022-10-04T07:03:36;13.40;99.90
324;DHT22;149;51.094;17.002;2022-10-04T07:06:07;13.40;99.90
324;DHT22;149;51.094;17.002;2022-10-04T07:08:46;13.30;99.90
324;DHT22;149;51.094;17.002;2022-10-04T07:11:27;13.40;99.90
324;DHT22;149;51.094;17.002;2022-10-04T07:14:06;13.10;99.90
324;DHT22;149;51.094;17.002;2022-10-04T07:16:52;13.70;99.90
324;DHT22;149;51.094;17.002;2022-10-04T07:19:24;14.20;99.90
324;DHT22;149;51.094;17.002;2022-10-04T07:22:09;14.10;99.90
324;DHT22;149;51.094;17.002;2022-10-04T07:25:06;14.50;99.90
324;DHT22;149;51.094;17.002;2022-10-04T07:30:15;17.00;99.90
324;DHT22;149;51.094;17.002;2022-10-04T07:32:48;17.50;99.90
324;DHT22;149;51.094;17.002;2022-10-04T07:35:29;18.30;99.90
324;DHT22;149;51.094;17.002;2022-10-04T07:43:54;18.50;99.90
324;DHT22;149;51.094;17.002;2022-10-04T07:49:19;18.20;99.90
324;DHT22;149;51.094;17.002;2022-10-04T07:54:59;19.40;99.90
324;DHT22;149;51.094;17.002;2022-10-04T07:57:48;19.10;99.90
324;DHT22;149;51.094;17.002;2022-10-04T08:00:21;18.70;99.90
324;DHT22;149;51.094;17.002;2022-10-04T08:05:28;18.10;99.90
324;DHT22;149;51.094;17.002;2022-10-04T08:10:39;20.10;99.90
324;DHT22;149;51.094;17.002;2022-10-04T08:13:27;21.00;99.90
324;DHT22;149;51.094;17.002;2022-10-04T08:16:02;20.50;99.90
324;DHT22;149;51.094;17.002;2022-10-04T08:21:07;19.90;99.90
324;DHT22;149;51.094;17.002;2022-10-04T08:26:56;17.20;99.90
324;DHT22;149;51.094;17.002;2022-10-04T08:38:17;17.50;99.90
324;DHT22;149;51.094;17.002;2022-10-04T08:44:02;16.70;99.90
324;DHT22;149;51.094;17.002;2022-10-04T08:50:12;15.80;99.90
324;DHT22;149;51.094;17.002;2022-10-04T08:56:08;19.10;99.90
324;DHT22;149;51.094;17.002;2022-10-04T08:59:10;19.60;99.90
324;DHT22;149;51.094;17.002;2022-10-04T09:04:56;19.50;99.90
324;DHT22;149;51.094;17.002;2022-10-04T09:08:13;20.10;99.90
324;DHT22;149;51.094;17.002;2022-10-04T09:11:03;20.20;99.90
324;DHT22;149;51.094;17.002;2022-10-04T09:16:45;17.30;99.90
324;DHT22;149;51.094;17.002;2022-10-04T09:19:46;16.50;99.90
324;DHT22;149;51.094;17.002;2022-10-04T09:22:41;15.90;99.90
324;DHT22;149;51.094;17.002;2022-10-04T09:25:25;15.70;99.90
324;DHT22;149;51.094;17.002;2022-10-04T09:45:48;16.50;99.90
324;DHT22;149;51.094;17.002;2022-10-04T09:48:22;16.50;99.90
324;DHT22;149;51.094;17.002;2022-10-04T09:54:22;16.00;99.90
324;DHT22;149;51.094;17.002;2022-10-04T10:07:55;16.20;99.90
324;DHT22;149;51.094;17.002;2022-10-04T10:17:18;16.60;99.90
324;DHT22;149;51.094;17.002;2022-10-04T10:23:16;16.00;99.90
324;DHT22;149;51.094;17.002;2022-10-04T10:32:01;16.40;99.90
324;DHT22;149;51.094;17.002;2022-10-04T10:35:13;16.90;99.90
324;DHT22;149;51.094;17.002;2022-10-04T10:43:22;17.50;99.90
324;DHT22;149;51.094;17.002;2022-10-04T10:46:01;17.20;99.90
324;DHT22;149;51.094;17.002;2022-10-04T10:48:54;16.50;99.90
324;DHT22;149;51.094;17.002;2022-10-04T11:00:21;16.50;99.90
324;DHT22;149;51.094;17.002;2022-10-04T11:03:22;16.30;99.90
324;DHT22;149;51.094;17.002;2022-10-04T11:11:34;15.90;99.90
324;DHT22;149;51.094;17.002;2022-10-04T11:17:32;16.20;99.90
324;DHT22;149;51.094;17.002;2022-10-04T11:23:48;16.20;99.90
324;DHT22;149;51.094;17.002;2022-10-04T11:34:45;16.40;99.90
324;DHT22;149;51.094;17.002;2022-10-04T11:38:01;16.70;99.90
324;DHT22;149;51.094;17.002;2022-10-04T11:41:03;17.10;99.90
324;DHT22;149;51.094;17.002;2022-10-04T11:43:49;17.30;99.90
324;DHT22;149;51.094;17.002;2022-10-04T11:46:27;17.50;99.90
324;DHT22;149;51.094;17.002;2022-10-04T11:58:16;17.50;99.90
324;DHT22;149;51.094;17.002;2022-10-04T12:07:38;17.90;99.90
324;DHT22;149;51.094;17.002;2022-10-04T12:10:14;18.30;99.90
324;DHT22;149;51.094;17.002;2022-10-04T12:21:56;17.70;99.90
324;DHT22;149;51.094;17.002;2022-10-04T12:24:46;17.10;99.90
324;DHT22;149;51.094;17.002;2022-10-04T12:30:20;17.10;99.90
324;DHT22;149;51.094;17.002;2022-10-04T12:35:43;17.00;99.90
324;DHT22;149;51.094;17.002;2022-10-04T12:41:29;16.60;99.90
324;DHT22;149;51.094;17.002;2022-10-04T12:54:43;17.30;99.90
324;DHT22;149;51.094;17.002;2022-10-04T12:57:27;17.30;99.90
324;DHT22;149;51.094;17.002;2022-10-04T13:00:12;17.30;99.90
324;DHT22;149;51.094;17.002;2022-10-04T13:22:44;15.80;99.90
324;DHT22;149;51.094;17.002;2022-10-04T13:31:03;16.00;99.90
324;DHT22;149;51.094;17.002;2022-10-04T13:39:43;16.30;99.90
324;DHT22;149;51.094;17.002;2022-10-04T13:51:24;16.70;99.90
324;DHT22;149;51.094;17.002;2022-10-04T14:00:02;16.40;99.90
324;DHT22;149;51.094;17.002;2022-10-04T14:20:06;15.70;99.90
324;DHT22;149;51.094;17.002;2022-10-04T14:26:13;15.40;99.90
324;DHT22;149;51.094;17.002;2022-10-04T14:34:59;15.30;99.90
324;DHT22;149;51.094;17.002;2022-10-04T14:38:01;15.30;99.90
324;DHT22;149;51.094;17.002;2022-10-04T14:46:53;15.20;99.90
324;DHT22;149;51.094;17.002;2022-10-04T14:58:32;14.80;99.90
324;DHT22;149;51.094;17.002;2022-10-04T15:06:43;14.70;99.90
324;DHT22;149;51.094;17.002;2022-10-04T15:12:01;14.60;99.90
324;DHT22;149;51.094;17.002;2022-10-04T15:17:57;14.60;99.90
324;DHT22;149;51.094;17.002;2022-10-04T15:21:01;14.60;99.90
324;DHT22;149;51.094;17.002;2022-10-04T15:23:44;14.60;99.90
324;DHT22;149;51.094;17.002;2022-10-04T15:32:35;14.50;99.90
324;DHT22;149;51.094;17.002;2022-10-04T15:34:46;14.50;99.90
324;DHT22;149;51.094;17.002;2022-10-04T15:40:24;14.50;99.90
324;DHT22;149;51.094;17.002;2022-10-04T15:54:55;14.80;99.90
324;DHT22;149;51.094;17.002;2022-10-04T15:58:07;15.00;99.90
324;DHT22;149;51.094;17.002;2022-10-04T16:01:05;15.00;99.90
324;DHT22;149;51.094;17.002;2022-10-04T16:07:07;14.90;99.90
324;DHT22;149;51.094;17.002;2022-10-04T16:09:49;14.60;99.90
324;DHT22;149;51.094;17.002;2022-10-04T16:15:37;14.40;99.90
324;DHT22;149;51.094;17.002;2022-10-04T16:32:46;13.60;99.90
324;DHT22;149;51.094;17.002;2022-10-04T16:35:41;13.50;99.90
324;DHT22;149;51.094;17.002;2022-10-04T16:41:01;13.20;99.90
324;DHT22;149;51.094;17.002;2022-10-04T16:43:38;13.10;99.90
324;DHT22;149;51.094;17.002;2022-10-04T16:46:21;13.10;99.90
324;DHT22;149;51.094;17.002;2022-10-04T16:49:00;13.00;99.90
324;DHT22;149;51.094;17.002;2022-10-04T16:54:47;13.00;99.90
324;DHT22;149;51.094;17.002;2022-10-04T16:57:24;13.00;99.90
324;DHT22;149;51.094;17.002;2022-10-04T16:59:59;13.00;99.90
324;DHT22;149;51.094;17.002;2022-10-04T17:03:12;13.00;99.90
324;DHT22;149;51.094;17.002;2022-10-04T17:05:45;13.00;99.90
324;DHT22;149;51.094;17.002;2022-10-04T17:11:11;12.80;99.90
324;DHT22;149;51.094;17.002;2022-10-04T17:13:54;12.80;99.90
324;DHT22;149;51.094;17.002;2022-10-04T17:16:38;12.70;99.90
324;DHT22;149;51.094;17.002;2022-10-04T17:22:26;12.60;99.90
324;DHT22;149;51.094;17.002;2022-10-04T17:33:41;12.30;99.90
324;DHT22;149;51.094;17.002;2022-10-04T17:36:27;12.30;99.90
324;DHT22;149;51.094;17.002;2022-10-04T17:39:25;12.40;99.90
324;DHT22;149;51.094;17.002;2022-10-04T17:42:25;12.30;99.90
324;DHT22;149;51.094;17.002;2022-10-04T17:48:07;12.30;99.90
324;DHT22;149;51.094;17.002;2022-10-04T17:51:08;12.30;99.90
324;DHT22;149;51.094;17.002;2022-10-04T17:54:10;12.20;99.90
324;DHT22;149;51.094;17.002;2022-10-04T17:57:16;12.20;99.90
324;DHT22;149;51.094;17.002;2022-10-04T18:00:10;12.10;99.90
324;DHT22;149;51.094;17.002;2022-10-04T18:05:54;12.00;99.90
324;DHT22;149;51.094;17.002;2022-10-04T18:11:50;12.00;99.90
324;DHT22;149;51.094;17.002;2022-10-04T18:17:00;11.90;99.90
324;DHT22;149;51.094;17.002;2022-10-04T18:19:43;11.90;99.90
324;DHT22;149;51.094;17.002;2022-10-04T18:22:24;11.90;99.90
324;DHT22;149;51.094;17.002;2022-10-04T18:25:14;11.90;99.90
324;DHT22;149;51.094;17.002;2022-10-04T18:33:47;11.80;99.90
324;DHT22;149;51.094;17.002;2022-10-04T18:41:26;11.70;99.90
324;DHT22;149;51.094;17.002;2022-10-04T18:44:27;11.70;99.90
324;DHT22;149;51.094;17.002;2022-10-04T18:46:57;11.60;99.90
324;DHT22;149;51.094;17.002;2022-10-04T18:49:28;11.70;99.90
324;DHT22;149;51.094;17.002;2022-10-04T18:54:44;11.60;99.90
324;DHT22;149;51.094;17.002;2022-10-04T18:57:25;11.50;99.90
324;DHT22;149;51.094;17.002;2022-10-04T19:00:05;11.50;99.90
324;DHT22;149;51.094;17.002;2022-10-04T19:03:19;11.50;99.90
324;DHT22;149;51.094;17.002;2022-10-04T19:06:12;11.40;99.90
324;DHT22;149;51.094;17.002;2022-10-04T19:12:08;11.40;99.90
324;DHT22;149;51.094;17.002;2022-10-04T19:15:07;11.30;99.90
324;DHT22;149;51.094;17.002;2022-10-04T19:17:48;11.30;99.90
324;DHT22;149;51.094;17.002;2022-10-04T19:20:30;11.10;99.90
324;DHT22;149;51.094;17.002;2022-10-04T19:25:52;11.10;99.90
324;DHT22;149;51.094;17.002;2022-10-04T19:28:56;11.10;99.90
324;DHT22;149;51.094;17.002;2022-10-04T19:31:33;11.10;99.90
324;DHT22;149;51.094;17.002;2022-10-04T19:34:23;11.10;99.90
324;DHT22;149;51.094;17.002;2022-10-04T19:37:05;11.00;99.90
324;DHT22;149;51.094;17.002;2022-10-04T19:48:16;11.00;99.90
324;DHT22;149;51.094;17.002;2022-10-04T19:51:03;11.00;99.90
324;DHT22;149;51.094;17.002;2022-10-04T19:53:44;10.90;99.90
324;DHT22;149;51.094;17.002;2022-10-04T19:56:20;11.00;99.90
324;DHT22;149;51.094;17.002;2022-10-04T19:59:03;10.90;99.90
324;DHT22;149;51.094;17.002;2022-10-04T20:01:32;10.90;99.90
324;DHT22;149;51.094;17.002;2022-10-04T20:04:13;10.90;99.90
324;DHT22;149;51.094;17.002;2022-10-04T20:07:02;10.80;99.90
324;DHT22;149;51.094;17.002;2022-10-04T20:12:03;10.80;99.90
324;DHT22;149;51.094;17.002;2022-10-04T20:14:45;10.80;99.90
324;DHT22;149;51.094;17.002;2022-10-04T20:17:31;10.80;99.90
324;DHT22;149;51.094;17.002;2022-10-04T20:19:59;10.80;99.90
324;DHT22;149;51.094;17.002;2022-10-04T20:22:28;10.70;99.90
324;DHT22;149;51.094;17.002;2022-10-04T20:24:57;10.70;99.90
324;DHT22;149;51.094;17.002;2022-10-04T20:29:58;10.70;99.90
324;DHT22;149;51.094;17.002;2022-10-04T20:35:02;10.60;99.90
324;DHT22;149;51.094;17.002;2022-10-04T20:45:50;10.30;99.90
324;DHT22;149;51.094;17.002;2022-10-04T20:48:23;10.30;99.90
324;DHT22;149;51.094;17.002;2022-10-04T20:50:51;10.30;99.90
324;DHT22;149;51.094;17.002;2022-10-04T20:53:24;10.40;99.90
324;DHT22;149;51.094;17.002;2022-10-04T20:56:24;10.40;99.90
324;DHT22;149;51.094;17.002;2022-10-04T20:58:57;10.40;99.90
324;DHT22;149;51.094;17.002;2022-10-04T21:01:32;10.40;99.90
324;DHT22;149;51.094;17.002;2022-10-04T21:04:25;10.40;99.90
324;DHT22;149;51.094;17.002;2022-10-04T21:07:02;10.30;99.90
324;DHT22;149;51.094;17.002;2022-10-04T21:09:33;10.20;99.90
324;DHT22;149;51.094;17.002;2022-10-04T21:12:01;10.20;99.90
324;DHT22;149;51.094;17.002;2022-10-04T21:14:33;10.20;99.90
324;DHT22;149;51.094;17.002;2022-10-04T21:17:04;10.10;99.90
324;DHT22;149;51.094;17.002;2022-10-04T21:19:51;9.90;99.90
324;DHT22;149;51.094;17.002;2022-10-04T21:27:29;9.70;99.90
324;DHT22;149;51.094;17.002;2022-10-04T21:29:57;9.40;99.90
324;DHT22;149;51.094;17.002;2022-10-04T21:32:25;9.50;99.90
324;DHT22;149;51.094;17.002;2022-10-04T21:34:52;9.50;99.90
324;DHT22;149;51.094;17.002;2022-10-04T21:37:21;9.50;99.90
324;DHT22;149;51.094;17.002;2022-10-04T21:39:48;9.50;99.90
324;DHT22;149;51.094;17.002;2022-10-04T21:42:16;9.60;99.90
324;DHT22;149;51.094;17.002;2022-10-04T21:44:43;9.50;99.90
324;DHT22;149;51.094;17.002;2022-10-04T21:47:11;9.60;99.90
324;DHT22;149;51.094;17.002;2022-10-04T21:49:39;9.80;99.90
324;DHT22;149;51.094;17.002;2022-10-04T21:52:07;9.80;99.90
324;DHT22;149;51.094;17.002;2022-10-04T21:54:39;9.90;99.90
324;DHT22;149;51.094;17.002;2022-10-04T21:57:07;9.80;99.90
324;DHT22;149;51.094;17.002;2022-10-04T21:59:34;9.80;99.90
324;DHT22;149;51.094;17.002;2022-10-04T22:02:03;9.60;99.90
324;DHT22;149;51.094;17.002;2022-10-04T22:04:29;9.60;99.90
324;DHT22;149;51.094;17.002;2022-10-04T22:06:58;9.60;99.90
324;DHT22;149;51.094;17.002;2022-10-04T22:09:30;9.50;99.90
324;DHT22;149;51.094;17.002;2022-10-04T22:11:59;9.70;99.90
324;DHT22;149;51.094;17.002;2022-10-04T22:14:25;9.50;99.90
324;DHT22;149;51.094;17.002;2022-10-04T22:16:54;9.60;99.90
324;DHT22;149;51.094;17.002;2022-10-04T22:19:22;9.50;99.90
324;DHT22;149;51.094;17.002;2022-10-04T22:21:49;9.50;99.90
324;DHT22;149;51.094;17.002;2022-10-04T22:24:18;9.30;99.90
324;DHT22;149;51.094;17.002;2022-10-04T22:26:46;9.20;99.90
324;DHT22;149;51.094;17.002;2022-10-04T22:29:15;9.30;99.90
324;DHT22;149;51.094;17.002;2022-10-04T22:31:48;9.10;99.90
324;DHT22;149;51.094;17.002;2022-10-04T22:34:19;9.30;99.90
324;DHT22;149;51.094;17.002;2022-10-04T22:36:47;9.40;99.90
324;DHT22;149;51.094;17.002;2022-10-04T22:39:23;9.40;99.90
324;DHT22;149;51.094;17.002;2022-10-04T22:41:59;9.40;99.90
324;DHT22;149;51.094;17.002;2022-10-04T22:44:36;9.40;99.90
324;DHT22;149;51.094;17.002;2022-10-04T22:47:09;9.30;99.90
324;DHT22;149;51.094;17.002;2022-10-04T22:49:40;9.40;99.90
324;DHT22;149;51.094;17.002;2022-10-04T22:52:26;9.30;99.90
324;DHT22;149;51.094;17.002;2022-10-04T22:54:57;9.10;99.90
324;DHT22;149;51.094;17.002;2022-10-04T22:57:26;9.00;99.90
324;DHT22;149;51.094;17.002;2022-10-04T22:59:53;9.10;99.90
324;DHT22;149;51.094;17.002;2022-10-04T23:02:28;9.20;99.90
324;DHT22;149;51.094;17.002;2022-10-04T23:05:15;9.10;99.90
324;DHT22;149;51.094;17.002;2022-10-04T23:07:43;9.00;99.90
324;DHT22;149;51.094;17.002;2022-10-04T23:10:16;9.10;99.90
324;DHT22;149;51.094;17.002;2022-10-04T23:12:46;9.20;99.90
324;DHT22;149;51.094;17.002;2022-10-04T23:15:17;9.30;99.90
324;DHT22;149;51.094;17.002;2022-10-04T23:17:44;9.20;99.90
324;DHT22;149;51.094;17.002;2022-10-04T23:20:20;9.20;99.90
324;DHT22;149;51.094;17.002;2022-10-04T23:22:53;9.20;99.90
324;DHT22;149;51.094;17.002;2022-10-04T23:25:26;9.30;99.90
324;DHT22;149;51.094;17.002;2022-10-04T23:28:00;9.10;99.90
324;DHT22;149;51.094;17.002;2022-10-04T23:30:27;9.00;99.90
324;DHT22;149;51.094;17.002;2022-10-04T23:32:57;9.00;99.90
324;DHT22;149;51.094;17.002;2022-10-04T23:35:29;8.90;99.90
324;DHT22;149;51.094;17.002;2022-10-04T23:38:04;8.80;99.90
324;DHT22;149;51.094;17.002;2022-10-04T23:40:34;8.80;99.90
324;DHT22;149;51.094;17.002;2022-10-04T23:43:03;8.70;99.90
324;DHT22;149;51.094;17.002;2022-10-04T23:45:39;8.80;99.90
324;DHT22;149;51.094;17.002;2022-10-04T23:48:11;8.90;99.90
324;DHT22;149;51.094;17.002;2022-10-04T23:50:41;8.90;99.90
324;DHT22;149;51.094;17.002;2022-10-04T23:53:16;8.90;99.90
324;DHT22;149;51.094;17.002;2022-10-04T23:55:45;8.80;99.90
324;DHT22;149;51.094;17.002;2022-10-04T23:58:21;8.80;99.90
